sensor_id;sensor_type;location;lat;lon;timestamp;P1;durP1;ratioP1;P2;durP2;ratioP2
74363;SDS011;62797;49.740;10.154;2023-08-06T00:00:23;1053.27;;;141.17;;
74363;SDS011;62797;49.740;10.154;2023-08-06T00:02:49;1096.40;;;222.30;;
74363;SDS011;62797;49.740;10.154;2023-08-06T00:05:15;867.65;;;277.77;;
74363;SDS011;62797;49.740;10.154;2023-08-06T00:07:46;5.93;;;5.43;;
74363;SDS011;62797;49.740;10.154;2023-08-06T00:10:12;9.75;;;9.07;;
74363;SDS011;62797;49.740;10.154;2023-08-06T00:12:38;3.90;;;2.13;;
74363;SDS011;62797;49.740;10.154;2023-08-06T00:15:04;4.30;;;1.90;;
74363;SDS011;62797;49.740;10.154;2023-08-06T00:17:30;3.47;;;1.88;;
74363;SDS011;62797;49.740;10.154;2023-08-06T00:19:58;5.73;;;2.33;;
74363;SDS011;62797;49.740;10.154;2023-08-06T00:22:30;1037.68;;;181.70;;
74363;SDS011;62797;49.740;10.154;2023-08-06T00:24:57;4.68;;;2.22;;
74363;SDS011;62797;49.740;10.154;2023-08-06T00:27:22;197.93;;;14.13;;
74363;SDS011;62797;49.740;10.154;2023-08-06T00:29:48;1999.90;;;999.90;;
74363;SDS011;62797;49.740;10.154;2023-08-06T00:32:14;1999.90;;;999.90;;
74363;SDS011;62797;49.740;10.154;2023-08-06T00:34:40;1999.90;;;999.90;;
74363;SDS011;62797;49.740;10.154;2023-08-06T00:37:05;8.90;;;7.60;;
74363;SDS011;62797;49.740;10.154;2023-08-06T00:39:31;2.90;;;2.47;;
74363;SDS011;62797;49.740;10.154;2023-08-06T00:41:58;214.88;;;60.45;;
74363;SDS011;62797;49.740;10.154;2023-08-06T00:44:24;1205.50;;;193.13;;
74363;SDS011;62797;49.740;10.154;2023-08-06T00:46:50;364.87;;;89.53;;
74363;SDS011;62797;49.740;10.154;2023-08-06T00:49:15;471.03;;;67.43;;
74363;SDS011;62797;49.740;10.154;2023-08-06T00:51:41;454.92;;;49.78;;
74363;SDS011;62797;49.740;10.154;2023-08-06T00:54:09;532.70;;;88.85;;
74363;SDS011;62797;49.740;10.154;2023-08-06T00:59:02;765.17;;;105.20;;
74363;SDS011;62797;49.740;10.154;2023-08-06T01:01:31;786.30;;;117.40;;
74363;SDS011;62797;49.740;10.154;2023-08-06T01:04:01;774.10;;;167.80;;
74363;SDS011;62797;49.740;10.154;2023-08-06T01:06:35;371.25;;;62.72;;
74363;SDS011;62797;49.740;10.154;2023-08-06T01:09:19;365.20;;;71.15;;
74363;SDS011;62797;49.740;10.154;2023-08-06T01:12:09;142.88;;;30.20;;
74363;SDS011;62797;49.740;10.154;2023-08-06T01:14:58;316.08;;;22.60;;
74363;SDS011;62797;49.740;10.154;2023-08-06T01:17:29;181.45;;;10.23;;
74363;SDS011;62797;49.740;10.154;2023-08-06T01:19:56;3.25;;;2.35;;
74363;SDS011;62797;49.740;10.154;2023-08-06T01:22:22;4.27;;;3.93;;
74363;SDS011;62797;49.740;10.154;2023-08-06T01:24:48;1999.90;;;478.25;;
74363;SDS011;62797;49.740;10.154;2023-08-06T01:27:25;1204.53;;;192.52;;
74363;SDS011;62797;49.740;10.154;2023-08-06T01:32:32;492.33;;;205.65;;
74363;SDS011;62797;49.740;10.154;2023-08-06T01:35:00;100.03;;;53.72;;
74363;SDS011;62797;49.740;10.154;2023-08-06T01:37:29;340.42;;;237.13;;
74363;SDS011;62797;49.740;10.154;2023-08-06T01:39:55;71.35;;;63.92;;
74363;SDS011;62797;49.740;10.154;2023-08-06T01:42:21;176.87;;;56.60;;
74363;SDS011;62797;49.740;10.154;2023-08-06T01:44:46;10.43;;;9.47;;
74363;SDS011;62797;49.740;10.154;2023-08-06T01:47:12;28.83;;;21.13;;
74363;SDS011;62797;49.740;10.154;2023-08-06T01:49:37;243.90;;;102.17;;
74363;SDS011;62797;49.740;10.154;2023-08-06T01:52:03;6.83;;;4.43;;
74363;SDS011;62797;49.740;10.154;2023-08-06T01:54:29;370.13;;;142.35;;
74363;SDS011;62797;49.740;10.154;2023-08-06T01:56:55;41.63;;;9.63;;
74363;SDS011;62797;49.740;10.154;2023-08-06T01:59:20;4.90;;;4.50;;
74363;SDS011;62797;49.740;10.154;2023-08-06T02:01:46;739.10;;;178.13;;
74363;SDS011;62797;49.740;10.154;2023-08-06T02:04:12;6.18;;;2.90;;
74363;SDS011;62797;49.740;10.154;2023-08-06T02:06:38;4.13;;;2.95;;
74363;SDS011;62797;49.740;10.154;2023-08-06T02:09:05;5.60;;;3.28;;
74363;SDS011;62797;49.740;10.154;2023-08-06T02:11:31;41.38;;;37.55;;
74363;SDS011;62797;49.740;10.154;2023-08-06T02:13:56;64.27;;;48.07;;
74363;SDS011;62797;49.740;10.154;2023-08-06T02:16:22;82.03;;;20.80;;
74363;SDS011;62797;49.740;10.154;2023-08-06T02:18:48;168.17;;;34.33;;
74363;SDS011;62797;49.740;10.154;2023-08-06T02:21:13;12.17;;;10.37;;
74363;SDS011;62797;49.740;10.154;2023-08-06T02:23:39;27.90;;;25.27;;
74363;SDS011;62797;49.740;10.154;2023-08-06T02:26:04;23.03;;;20.30;;
74363;SDS011;62797;49.740;10.154;2023-08-06T02:28:31;81.75;;;46.17;;
74363;SDS011;62797;49.740;10.154;2023-08-06T02:30:59;33.13;;;12.45;;
74363;SDS011;62797;49.740;10.154;2023-08-06T02:33:25;12.00;;;10.85;;
74363;SDS011;62797;49.740;10.154;2023-08-06T02:35:51;62.47;;;12.80;;
74363;SDS011;62797;49.740;10.154;2023-08-06T02:38:24;210.05;;;33.90;;
74363;SDS011;62797;49.740;10.154;2023-08-06T02:40:50;62.33;;;48.40;;
74363;SDS011;62797;49.740;10.154;2023-08-06T02:43:15;4.80;;;3.07;;
74363;SDS011;62797;49.740;10.154;2023-08-06T02:45:41;15.60;;;8.53;;
74363;SDS011;62797;49.740;10.154;2023-08-06T02:48:07;8.40;;;3.88;;
74363;SDS011;62797;49.740;10.154;2023-08-06T02:50:42;8.73;;;3.60;;
74363;SDS011;62797;49.740;10.154;2023-08-06T02:53:08;911.55;;;142.15;;
74363;SDS011;62797;49.740;10.154;2023-08-06T02:58:04;65.68;;;49.97;;
74363;SDS011;62797;49.740;10.154;2023-08-06T03:00:34;5.28;;;3.30;;
74363;SDS011;62797;49.740;10.154;2023-08-06T03:03:01;8.63;;;4.50;;
74363;SDS011;62797;49.740;10.154;2023-08-06T03:05:38;17.55;;;7.50;;
74363;SDS011;62797;49.740;10.154;2023-08-06T03:08:04;11.40;;;3.67;;
74363;SDS011;62797;49.740;10.154;2023-08-06T03:10:31;7.70;;;4.10;;
74363;SDS011;62797;49.740;10.154;2023-08-06T03:13:00;22.02;;;4.03;;
74363;SDS011;62797;49.740;10.154;2023-08-06T03:17:55;612.13;;;173.05;;
74363;SDS011;62797;49.740;10.154;2023-08-06T03:20:21;473.85;;;119.03;;
74363;SDS011;62797;49.740;10.154;2023-08-06T03:22:47;11.00;;;3.23;;
74363;SDS011;62797;49.740;10.154;2023-08-06T03:25:12;5.27;;;3.97;;
74363;SDS011;62797;49.740;10.154;2023-08-06T03:27:42;15.77;;;3.75;;
74363;SDS011;62797;49.740;10.154;2023-08-06T03:30:07;5.57;;;3.23;;
74363;SDS011;62797;49.740;10.154;2023-08-06T03:32:34;29.90;;;12.00;;
74363;SDS011;62797;49.740;10.154;2023-08-06T03:35:00;14.40;;;13.37;;
74363;SDS011;62797;49.740;10.154;2023-08-06T03:37:28;12.13;;;3.22;;
74363;SDS011;62797;49.740;10.154;2023-08-06T03:39:54;14.47;;;3.60;;
74363;SDS011;62797;49.740;10.154;2023-08-06T03:42:20;45.65;;;42.15;;
74363;SDS011;62797;49.740;10.154;2023-08-06T03:44:45;137.27;;;127.93;;
74363;SDS011;62797;49.740;10.154;2023-08-06T03:47:13;286.25;;;108.32;;
74363;SDS011;62797;49.740;10.154;2023-08-06T03:49:41;5.68;;;3.88;;
74363;SDS011;62797;49.740;10.154;2023-08-06T03:52:14;8.98;;;3.75;;
74363;SDS011;62797;49.740;10.154;2023-08-06T03:54:40;4.82;;;3.20;;
74363;SDS011;62797;49.740;10.154;2023-08-06T03:57:08;5.35;;;3.25;;
74363;SDS011;62797;49.740;10.154;2023-08-06T03:59:41;7.65;;;3.90;;
74363;SDS011;62797;49.740;10.154;2023-08-06T04:02:06;8.82;;;3.60;;
74363;SDS011;62797;49.740;10.154;2023-08-06T04:04:32;6.90;;;3.60;;
74363;SDS011;62797;49.740;10.154;2023-08-06T04:06:58;9.40;;;4.17;;
74363;SDS011;62797;49.740;10.154;2023-08-06T04:09:23;1561.83;;;109.17;;
74363;SDS011;62797;49.740;10.154;2023-08-06T04:11:49;223.73;;;24.97;;
74363;SDS011;62797;49.740;10.154;2023-08-06T04:14:15;10.13;;;4.50;;
74363;SDS011;62797;49.740;10.154;2023-08-06T04:16:40;1708.30;;;117.83;;
74363;SDS011;62797;49.740;10.154;2023-08-06T04:19:06;1310.43;;;100.38;;
74363;SDS011;62797;49.740;10.154;2023-08-06T04:21:32;1819.27;;;114.57;;
74363;SDS011;62797;49.740;10.154;2023-08-06T04:23:58;1299.17;;;132.00;;
74363;SDS011;62797;49.740;10.154;2023-08-06T04:26:25;1263.03;;;127.95;;
74363;SDS011;62797;49.740;10.154;2023-08-06T04:28:51;1639.53;;;129.33;;
74363;SDS011;62797;49.740;10.154;2023-08-06T04:31:16;1143.87;;;119.00;;
74363;SDS011;62797;49.740;10.154;2023-08-06T04:33:43;1581.72;;;131.05;;
74363;SDS011;62797;49.740;10.154;2023-08-06T04:36:12;1368.15;;;116.20;;
74363;SDS011;62797;49.740;10.154;2023-08-06T04:38:37;1240.57;;;87.03;;
74363;SDS011;62797;49.740;10.154;2023-08-06T04:41:03;1474.18;;;156.45;;
74363;SDS011;62797;49.740;10.154;2023-08-06T04:45:56;1113.80;;;93.65;;
74363;SDS011;62797;49.740;10.154;2023-08-06T04:48:27;1379.63;;;184.93;;
74363;SDS011;62797;49.740;10.154;2023-08-06T04:50:53;1077.22;;;126.70;;
74363;SDS011;62797;49.740;10.154;2023-08-06T04:53:20;1652.55;;;167.07;;
74363;SDS011;62797;49.740;10.154;2023-08-06T04:55:45;575.17;;;70.10;;
74363;SDS011;62797;49.740;10.154;2023-08-06T04:58:12;860.60;;;178.30;;
74363;SDS011;62797;49.740;10.154;2023-08-06T05:00:38;1110.30;;;149.20;;
74363;SDS011;62797;49.740;10.154;2023-08-06T05:03:05;1495.20;;;606.83;;
74363;SDS011;62797;49.740;10.154;2023-08-06T05:05:31;794.30;;;157.40;;
74363;SDS011;62797;49.740;10.154;2023-08-06T05:07:56;1621.23;;;128.23;;
74363;SDS011;62797;49.740;10.154;2023-08-06T05:10:25;1589.73;;;110.47;;
74363;SDS011;62797;49.740;10.154;2023-08-06T05:12:51;1719.72;;;194.80;;
74363;SDS011;62797;49.740;10.154;2023-08-06T05:15:17;1561.78;;;160.73;;
74363;SDS011;62797;49.740;10.154;2023-08-06T05:17:43;273.60;;;43.70;;
74363;SDS011;62797;49.740;10.154;2023-08-06T05:20:11;1802.57;;;162.63;;
74363;SDS011;62797;49.740;10.154;2023-08-06T05:22:37;1525.80;;;136.23;;
74363;SDS011;62797;49.740;10.154;2023-08-06T05:25:02;1619.13;;;156.70;;
74363;SDS011;62797;49.740;10.154;2023-08-06T05:27:29;159.07;;;19.42;;
74363;SDS011;62797;49.740;10.154;2023-08-06T05:29:55;8.63;;;4.72;;
74363;SDS011;62797;49.740;10.154;2023-08-06T05:32:21;1859.22;;;167.95;;
74363;SDS011;62797;49.740;10.154;2023-08-06T05:34:47;1999.90;;;999.90;;
74363;SDS011;62797;49.740;10.154;2023-08-06T05:37:13;1999.90;;;999.90;;
74363;SDS011;62797;49.740;10.154;2023-08-06T05:39:41;770.70;;;488.70;;
74363;SDS011;62797;49.740;10.154;2023-08-06T05:42:06;1999.90;;;999.90;;
74363;SDS011;62797;49.740;10.154;2023-08-06T05:44:32;1671.65;;;153.05;;
74363;SDS011;62797;49.740;10.154;2023-08-06T05:46:58;5.38;;;4.15;;
74363;SDS011;62797;49.740;10.154;2023-08-06T05:49:24;1093.80;;;165.03;;
74363;SDS011;62797;49.740;10.154;2023-08-06T05:51:49;145.33;;;53.10;;
74363;SDS011;62797;49.740;10.154;2023-08-06T05:54:15;159.57;;;57.20;;
74363;SDS011;62797;49.740;10.154;2023-08-06T05:56:40;7.50;;;4.17;;
74363;SDS011;62797;49.740;10.154;2023-08-06T05:59:06;4.87;;;2.70;;
74363;SDS011;62797;49.740;10.154;2023-08-06T06:01:32;9.33;;;3.83;;
74363;SDS011;62797;49.740;10.154;2023-08-06T06:03:57;10.07;;;3.63;;
74363;SDS011;62797;49.740;10.154;2023-08-06T06:06:23;12.57;;;3.03;;
74363;SDS011;62797;49.740;10.154;2023-08-06T06:08:48;6.10;;;3.60;;
74363;SDS011;62797;49.740;10.154;2023-08-06T06:11:14;6.03;;;3.27;;
74363;SDS011;62797;49.740;10.154;2023-08-06T06:13:40;4.70;;;3.00;;
74363;SDS011;62797;49.740;10.154;2023-08-06T06:16:06;4.00;;;2.80;;
74363;SDS011;62797;49.740;10.154;2023-08-06T06:18:31;7.30;;;3.30;;
74363;SDS011;62797;49.740;10.154;2023-08-06T06:20:57;10.40;;;2.90;;
74363;SDS011;62797;49.740;10.154;2023-08-06T06:23:23;7.63;;;3.03;;
74363;SDS011;62797;49.740;10.154;2023-08-06T06:25:49;6.30;;;3.30;;
74363;SDS011;62797;49.740;10.154;2023-08-06T06:28:18;9.13;;;4.10;;
74363;SDS011;62797;49.740;10.154;2023-08-06T06:30:44;6.70;;;3.10;;
74363;SDS011;62797;49.740;10.154;2023-08-06T06:33:10;4.33;;;2.73;;
74363;SDS011;62797;49.740;10.154;2023-08-06T06:35:36;4.37;;;2.93;;
74363;SDS011;62797;49.740;10.154;2023-08-06T06:38:02;4.22;;;2.80;;
74363;SDS011;62797;49.740;10.154;2023-08-06T06:40:28;9.77;;;3.55;;
74363;SDS011;62797;49.740;10.154;2023-08-06T06:42:54;14.05;;;3.00;;
74363;SDS011;62797;49.740;10.154;2023-08-06T06:45:19;5.40;;;2.57;;
74363;SDS011;62797;49.740;10.154;2023-08-06T06:47:45;2.97;;;1.60;;
74363;SDS011;62797;49.740;10.154;2023-08-06T06:50:11;6.73;;;2.10;;
74363;SDS011;62797;49.740;10.154;2023-08-06T06:52:36;5.87;;;2.33;;
74363;SDS011;62797;49.740;10.154;2023-08-06T06:55:03;4.15;;;2.80;;
74363;SDS011;62797;49.740;10.154;2023-08-06T06:57:28;9.18;;;2.67;;
74363;SDS011;62797;49.740;10.154;2023-08-06T06:59:54;9.13;;;2.20;;
74363;SDS011;62797;49.740;10.154;2023-08-06T07:02:20;3.40;;;1.77;;
74363;SDS011;62797;49.740;10.154;2023-08-06T07:04:45;4.13;;;1.90;;
74363;SDS011;62797;49.740;10.154;2023-08-06T07:07:11;2.50;;;2.00;;
74363;SDS011;62797;49.740;10.154;2023-08-06T07:09:37;3.60;;;2.20;;
74363;SDS011;62797;49.740;10.154;2023-08-06T07:12:02;4.90;;;1.60;;
74363;SDS011;62797;49.740;10.154;2023-08-06T07:14:30;3.25;;;1.50;;
74363;SDS011;62797;49.740;10.154;2023-08-06T07:16:56;3.20;;;1.53;;
74363;SDS011;62797;49.740;10.154;2023-08-06T07:19:22;3.10;;;1.77;;
74363;SDS011;62797;49.740;10.154;2023-08-06T07:21:48;5.65;;;2.25;;
74363;SDS011;62797;49.740;10.154;2023-08-06T07:24:13;3.67;;;1.50;;
74363;SDS011;62797;49.740;10.154;2023-08-06T07:26:39;7.00;;;2.00;;
74363;SDS011;62797;49.740;10.154;2023-08-06T07:29:07;7.65;;;1.90;;
74363;SDS011;62797;49.740;10.154;2023-08-06T07:31:32;282.57;;;42.17;;
74363;SDS011;62797;49.740;10.154;2023-08-06T07:34:01;273.67;;;212.80;;
74363;SDS011;62797;49.740;10.154;2023-08-06T07:36:26;1390.83;;;747.37;;
74363;SDS011;62797;49.740;10.154;2023-08-06T07:38:52;770.30;;;391.90;;
74363;SDS011;62797;49.740;10.154;2023-08-06T07:41:21;44.03;;;20.48;;
74363;SDS011;62797;49.740;10.154;2023-08-06T07:43:49;8.57;;;4.07;;
74363;SDS011;62797;49.740;10.154;2023-08-06T07:46:15;16.90;;;4.23;;
74363;SDS011;62797;49.740;10.154;2023-08-06T07:48:41;9.63;;;8.90;;
74363;SDS011;62797;49.740;10.154;2023-08-06T07:51:06;13.37;;;12.50;;
74363;SDS011;62797;49.740;10.154;2023-08-06T07:53:32;21.50;;;20.13;;
74363;SDS011;62797;49.740;10.154;2023-08-06T07:55:58;303.45;;;272.83;;
74363;SDS011;62797;49.740;10.154;2023-08-06T07:58:24;129.02;;;116.20;;
74363;SDS011;62797;49.740;10.154;2023-08-06T08:00:50;121.90;;;113.38;;
74363;SDS011;62797;49.740;10.154;2023-08-06T08:03:16;57.80;;;54.17;;
74363;SDS011;62797;49.740;10.154;2023-08-06T08:05:44;1999.90;;;999.90;;
74363;SDS011;62797;49.740;10.154;2023-08-06T08:08:10;452.50;;;416.73;;
74363;SDS011;62797;49.740;10.154;2023-08-06T08:10:36;76.77;;;72.50;;
74363;SDS011;62797;49.740;10.154;2023-08-06T08:13:03;1999.90;;;999.90;;
74363;SDS011;62797;49.740;10.154;2023-08-06T08:15:32;120.75;;;84.25;;
74363;SDS011;62797;49.740;10.154;2023-08-06T08:17:58;72.55;;;68.53;;
74363;SDS011;62797;49.740;10.154;2023-08-06T08:20:24;1999.90;;;999.90;;
74363;SDS011;62797;49.740;10.154;2023-08-06T08:22:56;1999.90;;;999.90;;
74363;SDS011;62797;49.740;10.154;2023-08-06T08:25:23;1999.90;;;999.90;;
74363;SDS011;62797;49.740;10.154;2023-08-06T08:27:48;1999.90;;;999.90;;
74363;SDS011;62797;49.740;10.154;2023-08-06T08:30:15;1626.13;;;780.47;;
74363;SDS011;62797;49.740;10.154;2023-08-06T08:32:41;402.35;;;332.65;;
74363;SDS011;62797;49.740;10.154;2023-08-06T08:35:07;4.20;;;1.20;;
74363;SDS011;62797;49.740;10.154;2023-08-06T08:37:33;3.33;;;1.15;;
74363;SDS011;62797;49.740;10.154;2023-08-06T08:39:58;1.40;;;0.80;;
74363;SDS011;62797;49.740;10.154;2023-08-06T08:42:25;6.32;;;0.80;;
74363;SDS011;62797;49.740;10.154;2023-08-06T08:44:51;1.27;;;0.90;;
74363;SDS011;62797;49.740;10.154;2023-08-06T08:47:18;0.70;;;0.65;;
74363;SDS011;62797;49.740;10.154;2023-08-06T08:49:44;0.60;;;0.60;;
74363;SDS011;62797;49.740;10.154;2023-08-06T08:52:12;2.95;;;1.15;;
74363;SDS011;62797;49.740;10.154;2023-08-06T08:54:41;0.82;;;0.70;;
74363;SDS011;62797;49.740;10.154;2023-08-06T08:57:09;1.08;;;0.50;;
74363;SDS011;62797;49.740;10.154;2023-08-06T08:59:35;3.50;;;0.60;;
74363;SDS011;62797;49.740;10.154;2023-08-06T09:02:01;13.90;;;1.63;;
74363;SDS011;62797;49.740;10.154;2023-08-06T09:06:56;0.80;;;0.70;;
74363;SDS011;62797;49.740;10.154;2023-08-06T09:09:28;1.08;;;0.65;;
74363;SDS011;62797;49.740;10.154;2023-08-06T09:12:00;0.65;;;0.65;;
74363;SDS011;62797;49.740;10.154;2023-08-06T09:14:27;3.20;;;0.47;;
74363;SDS011;62797;49.740;10.154;2023-08-06T09:16:53;0.70;;;0.63;;
74363;SDS011;62797;49.740;10.154;2023-08-06T09:21:45;0.80;;;0.57;;
74363;SDS011;62797;49.740;10.154;2023-08-06T09:24:14;0.75;;;0.57;;
74363;SDS011;62797;49.740;10.154;2023-08-06T09:26:41;0.68;;;0.68;;
74363;SDS011;62797;49.740;10.154;2023-08-06T09:29:08;1.10;;;0.60;;
74363;SDS011;62797;49.740;10.154;2023-08-06T09:31:41;1.10;;;0.50;;
74363;SDS011;62797;49.740;10.154;2023-08-06T09:34:12;1.05;;;0.82;;
74363;SDS011;62797;49.740;10.154;2023-08-06T09:36:51;1.52;;;0.70;;
74363;SDS011;62797;49.740;10.154;2023-08-06T09:39:22;1.55;;;0.47;;
74363;SDS011;62797;49.740;10.154;2023-08-06T09:41:58;2.28;;;0.45;;
74363;SDS011;62797;49.740;10.154;2023-08-06T09:44:25;0.60;;;0.60;;
74363;SDS011;62797;49.740;10.154;2023-08-06T09:46:53;0.43;;;0.32;;
74363;SDS011;62797;49.740;10.154;2023-08-06T09:49:24;0.82;;;0.45;;
74363;SDS011;62797;49.740;10.154;2023-08-06T09:51:51;0.60;;;0.43;;
74363;SDS011;62797;49.740;10.154;2023-08-06T09:54:20;0.32;;;0.30;;
74363;SDS011;62797;49.740;10.154;2023-08-06T09:56:49;1.10;;;0.50;;
74363;SDS011;62797;49.740;10.154;2023-08-06T10:01:42;0.40;;;0.40;;
74363;SDS011;62797;49.740;10.154;2023-08-06T10:04:10;0.85;;;0.40;;
74363;SDS011;62797;49.740;10.154;2023-08-06T10:06:37;0.20;;;0.20;;
74363;SDS011;62797;49.740;10.154;2023-08-06T10:09:03;1.48;;;0.40;;
74363;SDS011;62797;49.740;10.154;2023-08-06T10:11:30;3.10;;;0.30;;
74363;SDS011;62797;49.740;10.154;2023-08-06T10:16:40;0.55;;;0.38;;
74363;SDS011;62797;49.740;10.154;2023-08-06T10:19:08;0.30;;;0.30;;
74363;SDS011;62797;49.740;10.154;2023-08-06T10:21:35;0.40;;;0.40;;
74363;SDS011;62797;49.740;10.154;2023-08-06T10:24:03;0.28;;;0.28;;
74363;SDS011;62797;49.740;10.154;2023-08-06T10:26:35;0.30;;;0.30;;
74363;SDS011;62797;49.740;10.154;2023-08-06T10:29:01;0.52;;;0.30;;
74363;SDS011;62797;49.740;10.154;2023-08-06T10:34:23;0.43;;;0.30;;
74363;SDS011;62797;49.740;10.154;2023-08-06T10:36:49;2.37;;;0.40;;
74363;SDS011;62797;49.740;10.154;2023-08-06T10:39:15;0.32;;;0.32;;
74363;SDS011;62797;49.740;10.154;2023-08-06T10:41:44;1.95;;;0.38;;
74363;SDS011;62797;49.740;10.154;2023-08-06T10:44:10;0.50;;;0.50;;
74363;SDS011;62797;49.740;10.154;2023-08-06T10:46:37;0.25;;;0.25;;
74363;SDS011;62797;49.740;10.154;2023-08-06T10:49:03;2.85;;;0.40;;
74363;SDS011;62797;49.740;10.154;2023-08-06T10:51:29;0.40;;;0.40;;
74363;SDS011;62797;49.740;10.154;2023-08-06T10:53:56;0.90;;;0.73;;
74363;SDS011;62797;49.740;10.154;2023-08-06T10:56:24;0.82;;;0.40;;
74363;SDS011;62797;49.740;10.154;2023-08-06T10:58:53;0.50;;;0.50;;
74363;SDS011;62797;49.740;10.154;2023-08-06T11:01:21;0.65;;;0.50;;
74363;SDS011;62797;49.740;10.154;2023-08-06T11:03:48;0.40;;;0.40;;
74363;SDS011;62797;49.740;10.154;2023-08-06T11:06:19;0.40;;;0.40;;
74363;SDS011;62797;49.740;10.154;2023-08-06T11:08:50;9.13;;;0.52;;
74363;SDS011;62797;49.740;10.154;2023-08-06T11:11:18;1.80;;;0.43;;
74363;SDS011;62797;49.740;10.154;2023-08-06T11:13:45;0.50;;;0.50;;
74363;SDS011;62797;49.740;10.154;2023-08-06T11:16:15;0.22;;;0.22;;
74363;SDS011;62797;49.740;10.154;2023-08-06T11:18:45;3.25;;;0.32;;
74363;SDS011;62797;49.740;10.154;2023-08-06T11:21:12;0.38;;;0.38;;
74363;SDS011;62797;49.740;10.154;2023-08-06T11:23:38;2.65;;;0.90;;
74363;SDS011;62797;49.740;10.154;2023-08-06T11:26:05;0.30;;;0.30;;
74363;SDS011;62797;49.740;10.154;2023-08-06T11:28:32;0.50;;;0.50;;
74363;SDS011;62797;49.740;10.154;2023-08-06T11:30:58;0.20;;;0.20;;
74363;SDS011;62797;49.740;10.154;2023-08-06T11:33:27;0.10;;;0.10;;
74363;SDS011;62797;49.740;10.154;2023-08-06T11:35:57;10.77;;;10.13;;
74363;SDS011;62797;49.740;10.154;2023-08-06T11:38:24;1.23;;;0.20;;
74363;SDS011;62797;49.740;10.154;2023-08-06T11:40:52;0.25;;;0.25;;
74363;SDS011;62797;49.740;10.154;2023-08-06T11:43:18;106.50;;;7.90;;
74363;SDS011;62797;49.740;10.154;2023-08-06T11:45:46;0.10;;;0.10;;
74363;SDS011;62797;49.740;10.154;2023-08-06T11:48:12;0.10;;;0.10;;
74363;SDS011;62797;49.740;10.154;2023-08-06T11:50:38;0.30;;;0.10;;
74363;SDS011;62797;49.740;10.154;2023-08-06T11:53:06;0.52;;;0.30;;
74363;SDS011;62797;49.740;10.154;2023-08-06T11:55:32;0.20;;;0.20;;
74363;SDS011;62797;49.740;10.154;2023-08-06T11:57:59;0.55;;;0.10;;
74363;SDS011;62797;49.740;10.154;2023-08-06T12:00:29;3.55;;;0.28;;
74363;SDS011;62797;49.740;10.154;2023-08-06T12:02:55;0.10;;;0.10;;
74363;SDS011;62797;49.740;10.154;2023-08-06T12:05:22;0.17;;;0.17;;
74363;SDS011;62797;49.740;10.154;2023-08-06T12:07:52;0.40;;;0.30;;
74363;SDS011;62797;49.740;10.154;2023-08-06T12:10:20;0.40;;;0.20;;
74363;SDS011;62797;49.740;10.154;2023-08-06T12:12:47;0.80;;;0.30;;
74363;SDS011;62797;49.740;10.154;2023-08-06T12:15:13;0.30;;;0.30;;
74363;SDS011;62797;49.740;10.154;2023-08-06T12:17:39;0.65;;;0.30;;
74363;SDS011;62797;49.740;10.154;2023-08-06T12:20:05;2.63;;;0.30;;
74363;SDS011;62797;49.740;10.154;2023-08-06T12:22:33;0.10;;;0.10;;
74363;SDS011;62797;49.740;10.154;2023-08-06T12:25:06;0.10;;;0.10;;
74363;SDS011;62797;49.740;10.154;2023-08-06T12:27:33;0.00;;;0.00;;
74363;SDS011;62797;49.740;10.154;2023-08-06T12:29:59;0.93;;;0.10;;
74363;SDS011;62797;49.740;10.154;2023-08-06T12:32:25;0.20;;;0.20;;
74363;SDS011;62797;49.740;10.154;2023-08-06T12:34:51;0.00;;;0.00;;
74363;SDS011;62797;49.740;10.154;2023-08-06T12:37:17;0.88;;;0.25;;
74363;SDS011;62797;49.740;10.154;2023-08-06T12:39:43;0.10;;;0.10;;
74363;SDS011;62797;49.740;10.154;2023-08-06T12:42:08;1.80;;;0.20;;
74363;SDS011;62797;49.740;10.154;2023-08-06T12:44:35;0.30;;;0.30;;
74363;SDS011;62797;49.740;10.154;2023-08-06T12:47:01;0.50;;;0.35;;
74363;SDS011;62797;49.740;10.154;2023-08-06T12:49:27;3.20;;;0.30;;
74363;SDS011;62797;49.740;10.154;2023-08-06T12:54:19;0.57;;;0.30;;
74363;SDS011;62797;49.740;10.154;2023-08-06T12:56:48;0.20;;;0.20;;
74363;SDS011;62797;49.740;10.154;2023-08-06T12:59:15;0.40;;;0.40;;
74363;SDS011;62797;49.740;10.154;2023-08-06T13:01:42;0.10;;;0.10;;
74363;SDS011;62797;49.740;10.154;2023-08-06T13:04:08;0.17;;;0.17;;
74363;SDS011;62797;49.740;10.154;2023-08-06T13:06:34;0.65;;;0.10;;
74363;SDS011;62797;49.740;10.154;2023-08-06T13:09:11;0.10;;;0.10;;
74363;SDS011;62797;49.740;10.154;2023-08-06T13:11:37;0.10;;;0.10;;
74363;SDS011;62797;49.740;10.154;2023-08-06T13:14:11;0.10;;;0.10;;
74363;SDS011;62797;49.740;10.154;2023-08-06T13:16:38;0.10;;;0.10;;
74363;SDS011;62797;49.740;10.154;2023-08-06T13:19:05;80.65;;;10.23;;
74363;SDS011;62797;49.740;10.154;2023-08-06T13:21:35;0.25;;;0.25;;
74363;SDS011;62797;49.740;10.154;2023-08-06T13:24:29;0.20;;;0.20;;
74363;SDS011;62797;49.740;10.154;2023-08-06T13:26:55;0.10;;;0.10;;
74363;SDS011;62797;49.740;10.154;2023-08-06T13:29:21;0.13;;;0.10;;
74363;SDS011;62797;49.740;10.154;2023-08-06T13:31:47;0.30;;;0.30;;
74363;SDS011;62797;49.740;10.154;2023-08-06T13:34:13;1.20;;;0.20;;
74363;SDS011;62797;49.740;10.154;2023-08-06T13:36:38;1.87;;;1.07;;
74363;SDS011;62797;49.740;10.154;2023-08-06T13:39:04;0.40;;;0.20;;
74363;SDS011;62797;49.740;10.154;2023-08-06T13:41:30;0.43;;;0.10;;
74363;SDS011;62797;49.740;10.154;2023-08-06T13:43:56;43.40;;;10.27;;
74363;SDS011;62797;49.740;10.154;2023-08-06T13:46:22;87.97;;;25.67;;
74363;SDS011;62797;49.740;10.154;2023-08-06T13:48:48;0.23;;;0.17;;
74363;SDS011;62797;49.740;10.154;2023-08-06T13:51:16;0.20;;;0.20;;
74363;SDS011;62797;49.740;10.154;2023-08-06T13:53:42;1.85;;;1.52;;
74363;SDS011;62797;49.740;10.154;2023-08-06T13:56:08;212.45;;;155.00;;
74363;SDS011;62797;49.740;10.154;2023-08-06T13:58:35;406.05;;;44.90;;
74363;SDS011;62797;49.740;10.154;2023-08-06T14:01:01;0.70;;;0.70;;
74363;SDS011;62797;49.740;10.154;2023-08-06T14:03:29;0.10;;;0.10;;
74363;SDS011;62797;49.740;10.154;2023-08-06T14:05:55;65.03;;;3.30;;
74363;SDS011;62797;49.740;10.154;2023-08-06T14:10:50;1.27;;;0.25;;
74363;SDS011;62797;49.740;10.154;2023-08-06T14:13:16;0.30;;;0.30;;
74363;SDS011;62797;49.740;10.154;2023-08-06T14:15:43;27.55;;;13.23;;
74363;SDS011;62797;49.740;10.154;2023-08-06T14:18:11;0.20;;;0.20;;
74363;SDS011;62797;49.740;10.154;2023-08-06T14:20:38;0.38;;;0.38;;
74363;SDS011;62797;49.740;10.154;2023-08-06T14:23:03;1.00;;;0.67;;
74363;SDS011;62797;49.740;10.154;2023-08-06T14:25:29;0.40;;;0.40;;
74363;SDS011;62797;49.740;10.154;2023-08-06T14:27:55;0.27;;;0.27;;
74363;SDS011;62797;49.740;10.154;2023-08-06T14:30:20;46.90;;;26.30;;
74363;SDS011;62797;49.740;10.154;2023-08-06T14:32:46;1.30;;;0.67;;
74363;SDS011;62797;49.740;10.154;2023-08-06T14:35:12;0.40;;;0.40;;
74363;SDS011;62797;49.740;10.154;2023-08-06T14:37:38;3.00;;;0.65;;
74363;SDS011;62797;49.740;10.154;2023-08-06T14:40:06;60.72;;;4.78;;
74363;SDS011;62797;49.740;10.154;2023-08-06T14:42:32;282.27;;;246.43;;
74363;SDS011;62797;49.740;10.154;2023-08-06T14:44:58;0.70;;;0.70;;